Time;durP1;ratioP1;P1;durP2;ratioP2;P2;SDS_P1;SDS_P2;PMS_P1;PMS_P2;Temp;Humidity;BMP_temperature;BMP_pressure;BME280_temperature;BME280_humidity;BME280_pressure;Samples;Min_cycle;Max_cycle;Signal;HPM_P1;HPM_P2
2022/10/20 00:02:05;;;;;;;3.50;3.20;;;;;;;11.92;100.00;100610.22;5048272;28;20494;-51
2022/10/20 00:04:31;;;;;;;8.53;3.90;;;;;;;11.86;100.00;100606.81;5048317;28;20454;-51
2022/10/20 00:06:58;;;;;;;2.80;2.60;;;;;;;11.88;100.00;100595.25;5048753;28;20508;-51
2022/10/20 00:09:24;;;;;;;5.57;3.47;;;;;;;11.84;100.00;100591.81;5048457;28;20596;-53
2022/10/20 00:11:50;;;;;;;3.00;2.80;;;;;;;11.84;100.00;100581.16;5046078;28;20478;-50
2022/10/20 00:14:17;;;;;;;5.53;3.60;;;;;;;11.77;100.00;100574.22;5043797;28;20451;-50
2022/10/20 00:16:43;;;;;;;4.00;3.77;;;;;;;11.69;100.00;100582.44;5048301;28;20454;-49
2022/10/20 00:19:10;;;;;;;4.10;3.73;;;;;;;11.80;100.00;100582.19;5036941;28;20455;-52
2022/10/20 00:21:37;;;;;;;14.00;3.43;;;;;;;11.73;100.00;100585.88;5048251;28;20523;-50
2022/10/20 00:24:03;;;;;;;7.17;3.23;;;;;;;11.72;100.00;100592.13;5048430;28;20451;-51
2022/10/20 00:26:31;;;;;;;6.33;2.73;;;;;;;11.76;100.00;100589.31;5048275;28;20829;-52
2022/10/20 00:29:00;;;;;;;1.97;1.87;;;;;;;11.63;100.00;100587.91;5048447;28;20508;-51
2022/10/20 00:31:26;;;;;;;6.50;3.80;;;;;;;11.65;100.00;100590.53;5046849;28;20471;-52
2022/10/20 00:33:53;;;;;;;4.87;4.43;;;;;;;11.71;100.00;100595.72;5051043;28;20455;-52
2022/10/20 00:36:21;;;;;;;8.77;4.57;;;;;;;11.65;100.00;100588.78;5052016;28;20454;-52
2022/10/20 00:38:48;;;;;;;3.13;2.93;;;;;;;11.70;100.00;100576.19;5052033;28;20450;-50
2022/10/20 00:41:17;;;;;;;3.40;2.77;;;;;;;11.70;100.00;100583.31;5051639;28;20548;-52
2022/10/20 00:43:51;;;;;;;4.90;2.73;;;;;;;11.59;100.00;100570.28;5045396;28;20459;-51
2022/10/20 00:46:29;;;;;;;1.87;1.67;;;;;;;11.76;100.00;100573.34;5048579;28;20458;-50
2022/10/20 00:49:00;;;;;;;4.57;4.00;;;;;;;11.61;100.00;100576.44;5051844;28;20429;-52
2022/10/20 00:51:29;;;;;;;2.53;2.33;;;;;;;11.67;100.00;100581.63;5051444;28;20539;-52
2022/10/20 00:54:06;;;;;;;3.53;3.33;;;;;;;11.61;100.00;100563.13;5051625;28;20458;-50
2022/10/20 00:56:35;;;;;;;2.73;1.87;;;;;;;11.57;100.00;100562.34;5051522;28;20989;-54
2022/10/20 00:59:02;;;;;;;3.07;2.30;;;;;;;11.71;100.00;100561.97;5050859;28;20459;-50
2022/10/20 01:01:29;;;;;;;2.17;2.07;;;;;;;11.68;100.00;100555.84;5051286;28;20503;-52
2022/10/20 01:03:56;;;;;;;8.73;2.80;;;;;;;11.56;100.00;100541.97;5051627;28;20473;-50
2022/10/20 01:06:23;;;;;;;5.77;3.47;;;;;;;11.48;100.00;100535.97;5051322;28;20839;-53
2022/10/20 01:08:52;;;;;;;2.13;1.90;;;;;;;11.39;100.00;100536.25;5051609;28;20455;-50
2022/10/20 01:11:31;;;;;;;6.27;2.47;;;;;;;11.55;100.00;100536.69;5048607;28;20478;-52
2022/10/20 01:14:14;;;;;;;21.50;3.67;;;;;;;11.51;100.00;100535.03;5046253;28;20599;-51
2022/10/20 01:17:02;;;;;;;18.80;3.70;;;;;;;11.50;100.00;100535.94;5050988;28;20475;-50
2022/10/20 01:19:55;;;;;;;3.17;2.80;;;;;;;11.38;100.00;100539.84;5030105;28;20451;-53
2022/10/20 01:22:57;;;;;;;49.80;4.20;;;;;;;11.40;100.00;100542.47;5043903;28;20494;-52
2022/10/20 01:25:48;;;;;;;4.60;4.30;;;;;;;11.37;100.00;100548.72;5051213;28;20450;-49
2022/10/20 01:28:14;;;;;;;3.80;3.37;;;;;;;11.52;100.00;100542.13;5051054;28;20502;-51
2022/10/20 01:30:47;;;;;;;1.43;1.33;;;;;;;11.44;100.00;100547.66;5050932;28;20823;-52
2022/10/20 01:33:29;;;;;;;5.50;2.10;;;;;;;11.48;100.00;100548.41;5050950;28;20493;-50
2022/10/20 01:36:13;;;;;;;3.80;2.50;;;;;;;11.32;100.00;100536.47;5051137;28;20451;-50
2022/10/20 01:39:15;;;;;;;3.67;3.00;;;;;;;11.45;100.00;100541.41;5024129;28;20458;-50
2022/10/20 01:41:50;;;;;;;1.57;1.47;;;;;;;11.43;100.00;100532.59;5047762;28;21075;-51
2022/10/20 01:44:19;;;;;;;2.30;2.10;;;;;;;11.36;100.00;100531.00;5038545;28;20505;-52
2022/10/20 01:46:46;;;;;;;1.97;1.87;;;;;;;11.52;100.00;100531.47;5050226;28;20455;-50
2022/10/20 01:49:13;;;;;;;4.50;4.10;;;;;;;11.52;100.00;100516.38;5050801;28;20451;-53
2022/10/20 01:51:40;;;;;;;2.83;2.60;;;;;;;11.45;100.00;100514.78;5050949;28;20474;-50
2022/10/20 01:54:20;;;;;;;1.70;1.23;;;;;;;11.30;100.00;100506.38;5050796;28;20455;-52
2022/10/20 01:57:02;;;;;;;3.00;2.80;;;;;;;11.44;100.00;100507.72;5050400;28;20446;-50
2022/10/20 01:59:47;;;;;;;10.40;2.13;;;;;;;11.31;100.00;100505.44;5050441;28;20450;-51
2022/10/20 02:02:45;;;;;;;2.63;2.43;;;;;;;11.25;100.00;100495.84;5049876;28;20494;-50
2022/10/20 02:05:32;;;;;;;18.87;2.40;;;;;;;11.24;100.00;100487.00;5050286;28;20450;-52
2022/10/20 02:08:30;;;;;;;1.50;1.40;;;;;;;11.38;100.00;100483.94;5050364;28;20821;-50
2022/10/20 02:11:00;;;;;;;1.87;1.70;;;;;;;11.38;100.00;100483.94;5047592;28;20467;-52
2022/10/20 02:13:29;;;;;;;4.00;2.33;;;;;;;11.54;100.00;100477.25;5045553;28;20497;-53
2022/10/20 02:16:00;;;;;;;14.30;2.53;;;;;;;11.37;100.00;100481.31;5049756;28;20462;-50
2022/10/20 02:18:32;;;;;;;2.53;2.30;;;;;;;11.30;100.00;100477.97;5039009;28;20502;-52
2022/10/20 02:21:01;;;;;;;2.53;2.33;;;;;;;11.39;100.00;100488.34;5050022;28;20470;-50
2022/10/20 02:23:30;;;;;;;3.17;3.00;;;;;;;11.33;100.00;100484.97;5049883;28;20538;-51
2022/10/20 02:26:06;;;;;;;2.87;2.43;;;;;;;11.15;100.00;100484.59;5049913;28;20461;-51
2022/10/20 02:28:36;;;;;;;7.40;3.60;;;;;;;11.22;100.00;100495.91;5049658;28;20446;-50
2022/10/20 02:31:03;;;;;;;3.90;2.33;;;;;;;11.40;100.00;100498.09;5050068;28;20463;-50
2022/10/20 02:33:30;;;;;;;3.60;3.40;;;;;;;11.22;100.00;100490.59;5049745;28;20450;-50
2022/10/20 02:35:58;;;;;;;3.57;1.53;;;;;;;11.22;100.00;100475.50;5049654;28;20948;-50
2022/10/20 02:38:24;;;;;;;3.77;2.90;;;;;;;11.19;100.00;100458.75;5049522;28;20461;-51
2022/10/20 02:40:51;;;;;;;6.10;2.47;;;;;;;11.15;100.00;100458.00;5049745;28;20475;-51
2022/10/20 02:43:17;;;;;;;3.00;2.80;;;;;;;11.30;100.00;100466.44;5046204;28;20499;-49
2022/10/20 02:45:44;;;;;;;2.20;2.10;;;;;;;11.15;100.00;100475.75;5041286;28;20462;-51
2022/10/20 02:48:10;;;;;;;2.87;1.90;;;;;;;11.04;100.00;100478.69;5049326;28;20508;-50
2022/10/20 02:50:36;;;;;;;7.23;3.83;;;;;;;11.05;100.00;100492.84;5049762;28;20466;-50
2022/10/20 02:53:05;;;;;;;1.73;1.63;;;;;;;11.24;100.00;100488.78;5049185;28;20496;-50
2022/10/20 02:55:32;;;;;;;2.60;2.40;;;;;;;11.34;100.00;100479.63;5049067;28;20455;-50
2022/10/20 02:57:58;;;;;;;1.60;1.50;;;;;;;11.13;100.00;100478.44;5049309;28;20515;-53
2022/10/20 03:00:28;;;;;;;2.57;2.43;;;;;;;11.24;100.00;100476.38;5049021;28;20900;-51
2022/10/20 03:02:55;;;;;;;2.70;2.50;;;;;;;11.17;100.00;100474.78;5049137;28;20931;-50
2022/10/20 03:05:21;;;;;;;1.53;1.43;;;;;;;11.34;100.00;100474.28;5049254;28;20455;-51
2022/10/20 03:07:47;;;;;;;4.93;2.70;;;;;;;11.32;100.00;100481.44;5048687;28;20451;-49
2022/10/20 03:10:14;;;;;;;1.60;1.50;;;;;;;11.14;100.00;100474.00;5047443;28;20489;-50
2022/10/20 03:12:40;;;;;;;2.30;2.10;;;;;;;11.24;100.00;100468.38;5049048;28;20454;-50
2022/10/20 03:15:07;;;;;;;2.57;2.37;;;;;;;11.37;100.00;100471.53;5044193;28;20458;-50
2022/10/20 03:17:33;;;;;;;4.30;2.30;;;;;;;11.26;100.00;100465.66;5017378;28;20456;-52
2022/10/20 03:20:01;;;;;;;4.50;3.50;;;;;;;11.19;100.00;100467.63;5042442;28;20451;-52
2022/10/20 03:22:27;;;;;;;4.83;2.20;;;;;;;11.32;100.00;100460.16;5048650;28;20999;-49
2022/10/20 03:24:55;;;;;;;2.50;2.30;;;;;;;11.23;100.00;100447.09;5049007;28;20433;-50
2022/10/20 03:27:21;;;;;;;3.17;2.20;;;;;;;11.11;100.00;100443.03;5048913;28;20981;-51
2022/10/20 03:29:48;;;;;;;3.43;2.00;;;;;;;10.87;100.00;100441.06;5048720;28;20451;-50
2022/10/20 03:32:14;;;;;;;11.73;2.40;;;;;;;10.88;100.00;100440.13;5048863;28;20446;-51
2022/10/20 03:34:40;;;;;;;3.87;2.83;;;;;;;11.00;100.00;100453.09;5048929;28;20939;-49
2022/10/20 03:37:07;;;;;;;1.83;1.73;;;;;;;10.95;100.00;100437.25;5048679;28;20870;-51
2022/10/20 03:39:33;;;;;;;1.97;1.77;;;;;;;10.88;100.00;100427.72;5048973;28;20455;-50
2022/10/20 03:41:59;;;;;;;9.60;3.83;;;;;;;10.75;100.00;100436.06;5048864;28;20520;-50
2022/10/20 03:44:26;;;;;;;1.70;1.60;;;;;;;10.81;100.00;100435.88;5037560;28;20489;-50
2022/10/20 03:46:52;;;;;;;3.03;2.83;;;;;;;10.77;100.00;100435.09;5048659;28;20446;-49
2022/10/20 03:49:19;;;;;;;14.63;3.30;;;;;;;10.81;100.00;100439.41;5048463;28;21060;-51
2022/10/20 03:51:45;;;;;;;2.37;2.27;;;;;;;10.65;100.00;100435.44;5048519;28;20477;-54
2022/10/20 03:54:11;;;;;;;6.33;2.33;;;;;;;10.73;100.00;100436.09;5048773;28;20447;-56
2022/10/20 03:56:38;;;;;;;2.30;2.20;;;;;;;11.00;100.00;100438.94;5048870;28;20455;-53
2022/10/20 03:59:04;;;;;;;2.93;2.83;;;;;;;10.87;100.00;100441.91;5048717;28;20450;-50
2022/10/20 04:01:33;;;;;;;1.63;1.53;;;;;;;11.03;100.00;100436.19;5048378;28;20470;-51
2022/10/20 04:03:59;;;;;;;2.40;2.20;;;;;;;11.09;100.00;100439.53;5048394;28;20532;-52
2022/10/20 04:06:26;;;;;;;7.90;3.23;;;;;;;11.08;100.00;100440.44;5049328;28;20509;-50
2022/10/20 04:08:52;;;;;;;3.93;2.50;;;;;;;11.22;100.00;100427.59;5051691;28;20458;-51
2022/10/20 04:11:19;;;;;;;3.87;3.47;;;;;;;11.42;100.00;100435.03;5051276;28;20474;-50
2022/10/20 04:13:45;;;;;;;2.10;1.90;;;;;;;11.21;100.00;100440.97;5047888;28;20848;-52
2022/10/20 04:16:11;;;;;;;2.07;1.97;;;;;;;11.36;100.00;100440.50;5052169;28;21001;-51
2022/10/20 04:18:38;;;;;;;3.00;2.80;;;;;;;11.45;100.00;100424.28;5040737;28;20451;-50
2022/10/20 04:21:04;;;;;;;8.83;3.40;;;;;;;11.24;100.00;100419.63;5052232;28;20528;-50
2022/10/20 04:23:31;;;;;;;2.60;2.40;;;;;;;11.13;100.00;100413.72;5052101;28;21428;-50
2022/10/20 04:25:57;;;;;;;2.17;2.07;;;;;;;11.30;100.00;100411.44;5052200;28;20455;-50
2022/10/20 04:28:24;;;;;;;4.80;1.73;;;;;;;11.32;100.00;100411.38;5052042;28;20459;-50
2022/10/20 04:30:50;;;;;;;5.13;2.13;;;;;;;11.35;100.00;100412.16;5051866;28;20481;-51
2022/10/20 04:33:16;;;;;;;2.10;1.90;;;;;;;11.10;100.00;100401.38;5051637;28;20851;-50
2022/10/20 04:35:43;;;;;;;2.33;1.90;;;;;;;11.26;100.00;100391.16;5051924;28;21033;-55
2022/10/20 04:38:09;;;;;;;13.43;2.90;;;;;;;11.40;100.00;100375.66;5051923;28;20451;-49
2022/10/20 04:40:36;;;;;;;2.83;2.60;;;;;;;11.38;100.00;100377.50;5050628;28;20470;-51
2022/10/20 04:43:02;;;;;;;2.37;2.17;;;;;;;11.32;100.00;100369.69;5050510;28;20553;-50
2022/10/20 04:45:29;;;;;;;1.90;1.60;;;;;;;11.39;100.00;100370.38;5041321;28;20450;-50
2022/10/20 04:47:55;;;;;;;3.33;2.63;;;;;;;11.63;100.00;100374.03;5051126;28;20454;-51
2022/10/20 04:50:21;;;;;;;2.67;1.60;;;;;;;11.54;100.00;100381.41;5051718;28;20874;-49
2022/10/20 04:52:48;;;;;;;3.10;2.90;;;;;;;11.18;100.00;100369.22;5051481;28;20459;-51
2022/10/20 04:55:14;;;;;;;34.60;2.23;;;;;;;11.50;100.00;100361.13;5051783;28;20458;-50
2022/10/20 04:57:41;;;;;;;2.50;2.30;;;;;;;11.49;100.00;100362.03;5051756;28;20971;-51
2022/10/20 05:00:07;;;;;;;2.00;1.83;;;;;;;11.07;100.00;100347.38;5051996;28;20475;-49
2022/10/20 05:02:34;;;;;;;4.17;3.70;;;;;;;11.11;100.00;100349.06;5050801;28;20490;-51
2022/10/20 05:05:00;;;;;;;2.40;2.30;;;;;;;10.84;100.00;100346.28;5051641;28;20512;-50
2022/10/20 05:07:29;;;;;;;4.90;2.20;;;;;;;11.00;100.00;100343.19;5051367;28;20504;-51
2022/10/20 05:09:55;;;;;;;3.13;2.93;;;;;;;10.68;100.00;100351.13;5051549;28;20446;-51
2022/10/20 05:12:21;;;;;;;2.00;1.90;;;;;;;10.96;100.00;100350.34;5046640;28;20500;-52
2022/10/20 05:14:48;;;;;;;5.93;2.87;;;;;;;10.82;100.00;100344.56;5046349;28;20956;-50
2022/10/20 05:17:14;;;;;;;3.53;2.10;;;;;;;11.03;100.00;100345.75;5048151;28;20458;-52
2022/10/20 05:19:41;;;;;;;10.20;2.60;;;;;;;10.90;100.00;100345.22;5041054;28;20512;-53
2022/10/20 05:22:07;;;;;;;3.07;2.87;;;;;;;11.03;100.00;100341.28;5051041;28;20454;-50
2022/10/20 05:24:33;;;;;;;3.63;3.33;;;;;;;10.92;100.00;100335.41;5051102;28;20545;-53
2022/10/20 05:27:00;;;;;;;2.33;2.23;;;;;;;10.90;100.00;100334.59;5050759;28;20524;-50
2022/10/20 05:29:26;;;;;;;1.93;1.40;;;;;;;11.18;100.00;100343.50;5050719;28;20506;-54
2022/10/20 05:31:52;;;;;;;2.30;2.10;;;;;;;11.03;100.00;100348.41;5050986;28;20524;-50
2022/10/20 05:34:19;;;;;;;3.70;3.40;;;;;;;11.09;100.00;100343.75;5050763;28;20925;-50
2022/10/20 05:36:45;;;;;;;2.60;2.40;;;;;;;11.10;100.00;100348.19;5050721;28;20906;-52
2022/10/20 05:39:12;;;;;;;2.10;2.00;;;;;;;11.02;100.00;100333.34;5050763;28;20500;-51
2022/10/20 05:41:38;;;;;;;6.73;3.57;;;;;;;10.89;100.00;100328.41;5050587;28;20474;-52
2022/10/20 05:44:09;;;;;;;2.10;1.93;;;;;;;11.03;100.00;100332.44;5040723;28;20549;-51
2022/10/20 05:46:37;;;;;;;2.67;2.47;;;;;;;11.01;100.00;100335.16;5050052;28;20557;-49
2022/10/20 05:49:03;;;;;;;3.83;2.10;;;;;;;11.04;100.00;100339.50;5050386;28;20952;-50
2022/10/20 05:51:34;;;;;;;2.70;2.50;;;;;;;11.06;100.00;100337.66;5050475;28;20509;-52
2022/10/20 05:54:01;;;;;;;3.07;2.90;;;;;;;11.06;100.00;100337.66;5050652;28;20446;-50
2022/10/20 05:56:29;;;;;;;2.20;2.10;;;;;;;10.74;100.00;100334.16;5050495;28;20433;-50
2022/10/20 05:58:56;;;;;;;3.77;3.50;;;;;;;10.76;100.00;100327.00;5050177;28;20963;-51
2022/10/20 06:01:25;;;;;;;2.03;1.83;;;;;;;10.83;100.00;100333.91;5050035;28;20832;-53
2022/10/20 06:03:57;;;;;;;2.50;2.30;;;;;;;11.07;100.00;100342.06;5050269;28;20983;-53
2022/10/20 06:06:28;;;;;;;3.20;2.87;;;;;;;11.08;100.00;100351.78;5050206;28;20998;-51
2022/10/20 06:08:58;;;;;;;2.57;2.37;;;;;;;11.12;100.00;100359.66;5050120;28;20451;-51
2022/10/20 06:11:25;;;;;;;3.33;2.87;;;;;;;11.28;100.00;100352.06;5047941;28;20470;-52
2022/10/20 06:13:52;;;;;;;36.60;3.50;;;;;;;10.95;100.00;100362.78;5045496;28;20496;-50
2022/10/20 06:16:24;;;;;;;2.67;2.20;;;;;;;11.12;100.00;100383.59;5049963;28;20458;-52
2022/10/20 06:18:51;;;;;;;6.37;4.07;;;;;;;11.32;100.00;100396.28;5038237;28;21007;-51
2022/10/20 06:21:20;;;;;;;1.90;1.70;;;;;;;11.39;100.00;100400.53;5049804;28;20528;-51
2022/10/20 06:23:47;;;;;;;16.13;4.20;;;;;;;11.33;100.00;100389.19;5048338;28;20460;-51
2022/10/20 06:26:17;;;;;;;2.40;2.20;;;;;;;11.35;100.00;100385.53;5049927;28;20458;-51
2022/10/20 06:28:45;;;;;;;3.07;2.87;;;;;;;11.26;100.00;100378.72;5049820;28;20481;-52
2022/10/20 06:31:20;;;;;;;2.80;2.53;;;;;;;11.14;100.00;100370.25;5049251;28;20456;-51
2022/10/20 06:33:48;;;;;;;33.33;3.67;;;;;;;11.20;100.00;100380.69;5051770;28;20457;-51
2022/10/20 06:36:15;;;;;;;2.90;2.70;;;;;;;11.34;100.00;100401.56;5050794;28;20863;-50
2022/10/20 06:38:42;;;;;;;4.40;3.70;;;;;;;11.56;100.00;100398.22;5050253;28;20577;-53
2022/10/20 06:41:11;;;;;;;4.97;2.90;;;;;;;11.68;100.00;100388.09;5049640;28;20466;-51
2022/10/20 06:43:38;;;;;;;2.57;2.47;;;;;;;11.50;100.00;100385.06;5043556;28;20491;-51
2022/10/20 06:46:07;;;;;;;3.03;2.83;;;;;;;11.45;100.00;100387.00;5044299;28;20450;-53
2022/10/20 06:48:34;;;;;;;4.00;3.63;;;;;;;11.53;100.00;100395.66;5049269;28;20879;-52
2022/10/20 06:51:12;;;;;;;2.67;2.53;;;;;;;11.44;100.00;100385.28;5048877;28;20562;-51
2022/10/20 06:53:40;;;;;;;13.20;4.43;;;;;;;11.48;100.00;100380.72;5049499;28;20438;-50
2022/10/20 06:56:15;;;;;;;4.43;4.23;;;;;;;11.37;100.00;100382.84;5049258;28;20454;-50
2022/10/20 06:58:48;;;;;;;2.90;2.60;;;;;;;11.10;100.00;100353.50;5049273;28;20932;-51
2022/10/20 07:01:17;;;;;;;3.40;3.10;;;;;;;11.15;100.00;100353.34;5049202;28;20467;-50
2022/10/20 07:03:46;;;;;;;2.73;2.53;;;;;;;11.46;100.00;100367.47;5049128;28;20490;-53
2022/10/20 07:06:16;;;;;;;2.70;2.50;;;;;;;11.51;100.00;100368.22;5049638;28;20454;-52
2022/10/20 07:08:42;;;;;;;3.07;2.87;;;;;;;11.71;100.00;100364.03;5049206;28;20506;-53
2022/10/20 07:11:13;;;;;;;3.63;3.33;;;;;;;11.71;100.00;100358.72;5046628;28;20471;-51
2022/10/20 07:13:39;;;;;;;10.57;3.10;;;;;;;11.74;100.00;100359.47;5044268;28;20510;-51
2022/10/20 07:16:07;;;;;;;2.93;2.73;;;;;;;11.50;100.00;100344.28;5049240;28;21198;-51
2022/10/20 07:18:35;;;;;;;4.53;3.90;;;;;;;11.61;100.00;100333.28;5037691;28;20455;-51
2022/10/20 07:21:04;;;;;;;8.20;3.33;;;;;;;11.88;100.00;100335.09;5049001;28;20553;-51
2022/10/20 07:23:31;;;;;;;2.47;2.37;;;;;;;11.65;100.00;100356.22;5048800;28;20545;-50
2022/10/20 07:26:07;;;;;;;3.93;2.17;;;;;;;11.79;100.00;100351.41;5048847;28;20450;-50
2022/10/20 07:28:34;;;;;;;3.73;3.43;;;;;;;11.93;100.00;100358.94;5049016;28;20508;-51
2022/10/20 07:31:06;;;;;;;8.90;2.57;;;;;;;11.90;100.00;100367.88;5049093;28;20528;-51
2022/10/20 07:33:33;;;;;;;4.57;3.33;;;;;;;12.18;100.00;100378.47;5048565;28;20450;-50
2022/10/20 07:36:00;;;;;;;3.73;3.03;;;;;;;12.20;100.00;100378.41;5049016;28;20508;-51
2022/10/20 07:38:26;;;;;;;29.03;3.67;;;;;;;12.20;100.00;100375.75;5048752;28;20513;-50
2022/10/20 07:41:00;;;;;;;1.90;1.80;;;;;;;12.33;100.00;100369.94;5048616;28;20474;-51
2022/10/20 07:43:27;;;;;;;3.33;3.13;;;;;;;12.09;100.00;100360.16;5046975;28;20495;-50
2022/10/20 07:45:53;;;;;;;4.97;4.67;;;;;;;12.24;100.00;100366.75;5046611;28;20460;-50
2022/10/20 07:48:19;;;;;;;6.03;4.47;;;;;;;12.12;100.00;100362.72;5052877;28;20506;-51
2022/10/20 07:50:46;;;;;;;3.67;3.37;;;;;;;12.15;100.00;100357.28;5052631;28;20815;-50
2022/10/20 07:53:12;;;;;;;4.50;4.23;;;;;;;12.20;100.00;100367.75;5052746;28;20455;-53
2022/10/20 07:55:38;;;;;;;2.60;2.40;;;;;;;12.35;100.00;100370.81;5052493;28;20454;-52
2022/10/20 07:58:05;;;;;;;3.80;3.10;;;;;;;12.16;100.00;100354.56;5052782;28;21005;-50
2022/10/20 08:00:31;;;;;;;6.47;4.80;;;;;;;12.24;100.00;100353.44;5052560;28;20483;-51
2022/10/20 08:02:58;;;;;;;4.50;3.13;;;;;;;12.19;100.00;100344.69;5052437;28;20466;-50
2022/10/20 08:05:25;;;;;;;7.17;3.83;;;;;;;12.31;100.00;100349.63;5051273;28;20429;-53
2022/10/20 08:07:51;;;;;;;4.30;4.03;;;;;;;12.34;100.00;100346.88;5052403;28;20458;-50
2022/10/20 08:10:18;;;;;;;7.10;4.83;;;;;;;12.24;100.00;100348.97;5050398;28;20594;-53
2022/10/20 08:12:44;;;;;;;4.10;3.70;;;;;;;12.26;100.00;100352.44;5052501;28;20434;-50
2022/10/20 08:15:11;;;;;;;10.13;5.43;;;;;;;12.08;100.00;100340.63;5047684;28;20508;-49
2022/10/20 08:17:38;;;;;;;2.87;2.67;;;;;;;12.07;100.00;100341.56;5046401;28;20455;-51
2022/10/20 08:20:07;;;;;;;7.67;4.33;;;;;;;12.38;100.00;100348.50;5047299;28;20843;-53
2022/10/20 08:22:50;;;;;;;3.00;2.90;;;;;;;12.47;100.00;100361.47;5041530;28;20466;-51
2022/10/20 08:25:17;;;;;;;4.40;3.20;;;;;;;12.34;100.00;100369.06;5052186;28;20985;-49
2022/10/20 08:27:43;;;;;;;4.33;4.03;;;;;;;12.32;100.00;100343.34;5052095;28;20475;-50
2022/10/20 08:30:10;;;;;;;4.13;3.93;;;;;;;12.15;100.00;100331.50;5050703;28;20474;-51
2022/10/20 08:32:52;;;;;;;3.63;3.40;;;;;;;12.49;100.00;100335.66;5051811;28;20454;-51
2022/10/20 08:35:19;;;;;;;5.00;4.60;;;;;;;12.55;100.00;100334.56;5051721;28;20871;-50
2022/10/20 08:37:46;;;;;;;8.80;4.43;;;;;;;12.53;100.00;100329.28;5052241;28;20617;-54
2022/10/20 08:40:18;;;;;;;8.20;4.83;;;;;;;13.03;100.00;100347.91;5052326;28;20889;-50
2022/10/20 08:42:46;;;;;;;4.60;4.10;;;;;;;12.90;100.00;100351.97;5051641;28;20865;-52
2022/10/20 08:45:21;;;;;;;6.63;4.03;;;;;;;13.43;100.00;100352.63;5040483;28;20957;-51
2022/10/20 08:47:57;;;;;;;4.47;4.10;;;;;;;13.17;100.00;100350.91;5051625;28;20421;-52
2022/10/20 08:50:27;;;;;;;4.60;4.10;;;;;;;13.03;100.00;100348.78;5051961;28;20470;-50
2022/10/20 08:52:56;;;;;;;4.40;4.20;;;;;;;13.22;100.00;100345.41;5051797;28;20508;-50
2022/10/20 08:55:28;;;;;;;4.90;4.60;;;;;;;12.95;100.00;100347.31;5052091;28;20914;-51
2022/10/20 08:58:04;;;;;;;3.93;3.60;;;;;;;12.99;100.00;100328.44;5054436;28;20429;-53
2022/10/20 09:00:31;;;;;;;11.73;4.23;;;;;;;13.12;100.00;100333.31;5051817;28;20474;-52
2022/10/20 09:03:20;;;;;;;4.43;4.13;;;;;;;13.03;100.00;100342.56;5051642;28;20459;-52
2022/10/20 09:05:53;;;;;;;6.83;5.83;;;;;;;13.16;100.00;100338.50;5051521;28;20459;-50
2022/10/20 09:08:22;;;;;;;6.83;4.30;;;;;;;13.15;100.00;100343.88;5051487;28;20524;-50
2022/10/20 09:10:51;;;;;;;5.57;4.07;;;;;;;13.27;100.00;100332.75;5049814;28;20485;-54
2022/10/20 09:13:23;;;;;;;5.03;4.63;;;;;;;13.66;100.00;100332.97;5039865;28;20457;-53
2022/10/20 09:15:52;;;;;;;5.70;5.30;;;;;;;13.46;100.00;100322.25;5050508;28;20421;-53
2022/10/20 09:18:19;;;;;;;6.37;4.07;;;;;;;13.54;100.00;100322.78;5039685;28;20451;-53
2022/10/20 09:21:05;;;;;;;5.73;5.03;;;;;;;13.45;100.00;100324.03;5037278;28;20471;-54
2022/10/20 09:23:44;;;;;;;5.53;5.03;;;;;;;13.54;100.00;100312.09;5051254;28;20512;-53
2022/10/20 09:26:17;;;;;;;4.57;4.37;;;;;;;13.47;100.00;100321.31;5051177;28;20956;-53
2022/10/20 09:29:10;;;;;;;4.63;4.20;;;;;;;13.67;100.00;100337.38;5051547;28;20460;-53
2022/10/20 09:31:45;;;;;;;8.70;4.90;;;;;;;14.19;100.00;100335.22;5050635;28;21070;-52
2022/10/20 09:34:29;;;;;;;5.17;4.67;;;;;;;14.03;100.00;100323.44;5050665;28;20956;-53
2022/10/20 09:37:07;;;;;;;11.30;6.60;;;;;;;13.74;100.00;100322.00;5050716;28;20509;-54
2022/10/20 09:39:46;;;;;;;4.97;4.30;;;;;;;13.76;100.00;100318.31;5050367;28;20432;-54
2022/10/20 09:42:24;;;;;;;10.20;6.67;;;;;;;13.97;100.00;100307.66;5050695;28;20498;-53
2022/10/20 09:44:55;;;;;;;9.80;5.10;;;;;;;13.75;100.00;100316.59;5038920;28;20529;-53
2022/10/20 09:47:23;;;;;;;5.53;5.03;;;;;;;13.75;100.00;100316.59;5050465;28;20936;-53
2022/10/20 09:50:00;;;;;;;8.03;6.27;;;;;;;13.66;100.00;100322.28;5050534;28;20918;-51
2022/10/20 09:52:36;;;;;;;7.43;6.70;;;;;;;13.81;100.00;100323.47;5050304;28;20939;-52
2022/10/20 09:55:15;;;;;;;8.43;6.07;;;;;;;13.81;100.00;100323.47;5050568;28;20821;-51
2022/10/20 09:57:46;;;;;;;8.17;4.97;;;;;;;13.79;100.00;100315.50;5050796;28;20459;-50
2022/10/20 10:00:24;;;;;;;8.33;4.40;;;;;;;13.66;100.00;100318.75;5050342;28;20470;-53
2022/10/20 10:03:13;;;;;;;7.97;5.63;;;;;;;13.75;100.00;100316.59;5050209;28;21078;-51
2022/10/20 10:05:39;;;;;;;4.13;3.73;;;;;;;13.69;100.00;100311.47;5049449;28;20490;-53
2022/10/20 10:08:12;;;;;;;6.50;5.90;;;;;;;13.60;100.00;100309.19;5050315;28;20470;-51
2022/10/20 10:10:39;;;;;;;10.97;6.07;;;;;;;13.73;100.00;100305.09;5047615;28;20959;-51
2022/10/20 10:13:20;;;;;;;5.50;4.17;;;;;;;13.76;100.00;100296.09;5048738;28;20443;-54
2022/10/20 10:15:59;;;;;;;7.47;5.70;;;;;;;13.87;100.00;100288.50;5049909;28;20501;-51
2022/10/20 10:18:26;;;;;;;5.00;3.80;;;;;;;13.90;100.00;100291.91;5038162;28;20422;-51
2022/10/20 10:21:02;;;;;;;4.20;3.93;;;;;;;14.07;100.00;100276.94;5049926;28;20449;-50
2022/10/20 10:23:32;;;;;;;6.43;5.67;;;;;;;14.33;100.00;100274.00;5049731;28;20500;-51
2022/10/20 10:25:58;;;;;;;6.60;5.97;;;;;;;14.25;100.00;100278.81;5050114;28;20450;-50
2022/10/20 10:28:37;;;;;;;9.63;5.50;;;;;;;14.43;100.00;100278.00;5049723;28;20457;-51
2022/10/20 10:31:08;;;;;;;7.60;6.90;;;;;;;14.63;100.00;100268.25;5049825;28;20873;-51
2022/10/20 10:33:35;;;;;;;5.90;5.60;;;;;;;14.87;100.00;100283.16;5049469;28;20983;-51
2022/10/20 10:36:09;;;;;;;7.97;6.27;;;;;;;14.84;100.00;100277.97;5049621;28;20841;-51
2022/10/20 10:38:36;;;;;;;5.53;5.03;;;;;;;14.81;100.00;100262.06;5049522;28;20421;-50
2022/10/20 10:41:14;;;;;;;8.90;6.00;;;;;;;14.86;100.00;100254.69;5049925;28;20561;-51
2022/10/20 10:43:52;;;;;;;8.50;5.67;;;;;;;14.97;100.00;100241.66;5043354;28;20501;-52
2022/10/20 10:46:25;;;;;;;16.90;6.50;;;;;;;15.15;100.00;100242.59;5045808;28;20577;-50
2022/10/20 10:49:25;;;;;;;8.47;6.27;;;;;;;14.98;100.00;100240.72;5049786;28;20456;-51
2022/10/20 10:52:03;;;;;;;6.63;4.93;;;;;;;15.04;100.00;100234.19;5049461;28;20507;-51
2022/10/20 10:54:45;;;;;;;8.10;6.20;;;;;;;15.13;100.00;100238.25;5049157;28;20504;-53
2022/10/20 10:57:42;;;;;;;7.77;4.40;;;;;;;15.48;100.00;100232.00;5049485;28;20422;-50
2022/10/20 11:00:19;;;;;;;5.07;4.67;;;;;;;15.30;100.00;100240.97;5049320;28;21049;-52
2022/10/20 11:03:00;;;;;;;6.00;5.60;;;;;;;15.65;100.00;100240.13;5049123;28;20429;-50
2022/10/20 11:05:57;;;;;;;6.80;5.67;;;;;;;15.92;100.00;100237.88;5049411;28;20469;-53
2022/10/20 11:08:47;;;;;;;5.77;5.27;;;;;;;15.90;100.00;100241.56;5049293;28;20940;-51
2022/10/20 11:11:50;;;;;;;9.10;6.57;;;;;;;15.85;100.00;100239.09;5029979;28;20485;-50
2022/10/20 11:14:42;;;;;;;17.67;6.20;;;;;;;15.96;100.00;100265.38;5027560;28;20472;-53
2022/10/20 11:17:44;;;;;;;9.10;6.73;;;;;;;15.81;100.00;100266.16;5030423;28;20433;-51
2022/10/20 11:20:31;;;;;;;7.70;5.27;;;;;;;15.62;100.00;100263.50;5045031;28;20464;-51
2022/10/20 11:23:28;;;;;;;5.87;5.30;;;;;;;15.56;100.00;100256.63;5050467;28;20914;-51
2022/10/20 11:26:16;;;;;;;8.30;6.40;;;;;;;15.39;100.00;100252.09;5047490;28;20460;-51
2022/10/20 11:28:45;;;;;;;4.50;4.10;;;;;;;15.46;100.00;100249.97;5049171;28;20429;-54
2022/10/20 11:31:38;;;;;;;8.33;5.00;;;;;;;15.33;100.00;100254.19;5036335;28;20878;-51
2022/10/20 11:34:15;;;;;;;10.23;5.70;;;;;;;15.39;100.00;100244.06;5026301;28;20496;-52
2022/10/20 11:37:01;;;;;;;14.63;7.73;;;;;;;15.60;100.00;100255.56;5048741;28;20485;-51